sensor_id;sensor_type;location;lat;lon;timestamp;temperature;humidity
21318;DHT22;10818;50.830;6.524;2023-03-23T00:02:28;13.10;99.90
21318;DHT22;10818;50.830;6.524;2023-03-23T00:07:29;13.10;99.90
21318;DHT22;10818;50.830;6.524;2023-03-23T00:12:31;13.10;99.90
21318;DHT22;10818;50.830;6.524;2023-03-23T00:17:34;13.20;99.90
21318;DHT22;10818;50.830;6.524;2023-03-23T00:22:35;13.10;99.90
21318;DHT22;10818;50.830;6.524;2023-03-23T00:27:37;13.20;99.90
21318;DHT22;10818;50.830;6.524;2023-03-23T00:32:38;13.10;99.90
21318;DHT22;10818;50.830;6.524;2023-03-23T00:37:38;13.10;99.90
21318;DHT22;10818;50.830;6.524;2023-03-23T00:42:39;13.20;99.90
21318;DHT22;10818;50.830;6.524;2023-03-23T00:47:39;13.20;99.90
21318;DHT22;10818;50.830;6.524;2023-03-23T00:52:41;13.10;99.90
21318;DHT22;10818;50.830;6.524;2023-03-23T00:57:42;13.10;99.90
21318;DHT22;10818;50.830;6.524;2023-03-23T01:02:42;13.10;99.90
21318;DHT22;10818;50.830;6.524;2023-03-23T01:07:44;13.10;99.90
21318;DHT22;10818;50.830;6.524;2023-03-23T01:12:45;13.20;99.90
21318;DHT22;10818;50.830;6.524;2023-03-23T01:17:46;13.20;99.90
21318;DHT22;10818;50.830;6.524;2023-03-23T01:22:46;13.20;99.90
21318;DHT22;10818;50.830;6.524;2023-03-23T01:27:47;13.20;99.90
21318;DHT22;10818;50.830;6.524;2023-03-23T01:32:47;13.20;99.90
21318;DHT22;10818;50.830;6.524;2023-03-23T01:37:48;13.10;99.90
21318;DHT22;10818;50.830;6.524;2023-03-23T01:42:48;13.00;99.90
21318;DHT22;10818;50.830;6.524;2023-03-23T01:47:49;13.00;99.90
21318;DHT22;10818;50.830;6.524;2023-03-23T01:52:52;12.90;99.90
21318;DHT22;10818;50.830;6.524;2023-03-23T01:57:54;12.70;99.90
21318;DHT22;10818;50.830;6.524;2023-03-23T02:02:56;12.80;99.90
21318;DHT22;10818;50.830;6.524;2023-03-23T02:07:57;12.80;99.90
21318;DHT22;10818;50.830;6.524;2023-03-23T02:13:00;12.70;99.90
21318;DHT22;10818;50.830;6.524;2023-03-23T02:18:05;12.60;99.90
21318;DHT22;10818;50.830;6.524;2023-03-23T02:38:30;12.20;99.90
21318;DHT22;10818;50.830;6.524;2023-03-23T02:43:33;12.20;99.90
21318;DHT22;10818;50.830;6.524;2023-03-23T02:48:36;12.20;99.90
21318;DHT22;10818;50.830;6.524;2023-03-23T02:53:38;12.10;99.90
21318;DHT22;10818;50.830;6.524;2023-03-23T02:58:40;12.20;99.90
21318;DHT22;10818;50.830;6.524;2023-03-23T03:03:41;12.20;99.90
21318;DHT22;10818;50.830;6.524;2023-03-23T03:08:45;12.10;99.90
21318;DHT22;10818;50.830;6.524;2023-03-23T03:13:50;12.30;99.90
21318;DHT22;10818;50.830;6.524;2023-03-23T03:19:03;12.20;99.90
21318;DHT22;10818;50.830;6.524;2023-03-23T03:24:03;12.30;99.90
21318;DHT22;10818;50.830;6.524;2023-03-23T03:29:08;12.40;99.90
21318;DHT22;10818;50.830;6.524;2023-03-23T03:34:08;12.50;99.90
21318;DHT22;10818;50.830;6.524;2023-03-23T03:39:09;12.60;99.90
21318;DHT22;10818;50.830;6.524;2023-03-23T03:44:10;12.60;99.90
21318;DHT22;10818;50.830;6.524;2023-03-23T03:49:10;12.60;99.90
21318;DHT22;10818;50.830;6.524;2023-03-23T03:54:15;12.70;99.90
21318;DHT22;10818;50.830;6.524;2023-03-23T03:59:16;12.80;99.90
21318;DHT22;10818;50.830;6.524;2023-03-23T04:04:16;12.70;99.90
21318;DHT22;10818;50.830;6.524;2023-03-23T04:09:17;12.80;99.90
21318;DHT22;10818;50.830;6.524;2023-03-23T04:14:17;12.70;99.90
21318;DHT22;10818;50.830;6.524;2023-03-23T04:19:17;12.70;99.90
21318;DHT22;10818;50.830;6.524;2023-03-23T04:24:19;12.70;99.90
21318;DHT22;10818;50.830;6.524;2023-03-23T04:29:21;12.60;99.90
21318;DHT22;10818;50.830;6.524;2023-03-23T04:34:22;12.80;99.90
21318;DHT22;10818;50.830;6.524;2023-03-23T04:39:23;12.80;99.90
21318;DHT22;10818;50.830;6.524;2023-03-23T04:44:24;12.90;99.90
21318;DHT22;10818;50.830;6.524;2023-03-23T04:49:24;12.90;99.90
21318;DHT22;10818;50.830;6.524;2023-03-23T04:54:25;12.80;99.90
21318;DHT22;10818;50.830;6.524;2023-03-23T04:59:29;12.80;99.90
21318;DHT22;10818;50.830;6.524;2023-03-23T05:04:30;12.80;99.90
21318;DHT22;10818;50.830;6.524;2023-03-23T05:09:33;12.80;99.90
21318;DHT22;10818;50.830;6.524;2023-03-23T05:14:34;12.80;99.90
21318;DHT22;10818;50.830;6.524;2023-03-23T05:19:35;12.80;99.90
21318;DHT22;10818;50.830;6.524;2023-03-23T05:24:36;12.80;99.90
21318;DHT22;10818;50.830;6.524;2023-03-23T05:29:36;12.80;99.90
21318;DHT22;10818;50.830;6.524;2023-03-23T05:34:37;12.80;99.90
21318;DHT22;10818;50.830;6.524;2023-03-23T05:39:38;12.90;99.90
21318;DHT22;10818;50.830;6.524;2023-03-23T05:44:40;12.70;99.90
21318;DHT22;10818;50.830;6.524;2023-03-23T05:49:40;12.80;99.90
21318;DHT22;10818;50.830;6.524;2023-03-23T05:54:41;12.60;99.90
21318;DHT22;10818;50.830;6.524;2023-03-23T05:59:41;12.60;99.90
21318;DHT22;10818;50.830;6.524;2023-03-23T06:04:42;12.60;99.90
21318;DHT22;10818;50.830;6.524;2023-03-23T06:09:43;12.70;99.90
21318;DHT22;10818;50.830;6.524;2023-03-23T06:14:43;12.80;99.90
21318;DHT22;10818;50.830;6.524;2023-03-23T06:19:44;12.90;99.90
21318;DHT22;10818;50.830;6.524;2023-03-23T06:24:47;13.00;99.90
21318;DHT22;10818;50.830;6.524;2023-03-23T06:29:49;13.10;99.90
21318;DHT22;10818;50.830;6.524;2023-03-23T06:34:49;13.10;99.90
21318;DHT22;10818;50.830;6.524;2023-03-23T06:39:50;13.30;99.90
21318;DHT22;10818;50.830;6.524;2023-03-23T06:44:52;13.40;99.90
21318;DHT22;10818;50.830;6.524;2023-03-23T06:49:52;13.50;99.90
21318;DHT22;10818;50.830;6.524;2023-03-23T06:54:53;13.60;99.90
21318;DHT22;10818;50.830;6.524;2023-03-23T06:59:53;13.60;99.90
21318;DHT22;10818;50.830;6.524;2023-03-23T07:04:54;13.60;99.90
21318;DHT22;10818;50.830;6.524;2023-03-23T07:09:55;13.80;99.90
21318;DHT22;10818;50.830;6.524;2023-03-23T07:14:55;13.80;99.90
21318;DHT22;10818;50.830;6.524;2023-03-23T07:19:56;13.80;99.90
21318;DHT22;10818;50.830;6.524;2023-03-23T07:24:56;13.90;99.90
21318;DHT22;10818;50.830;6.524;2023-03-23T07:29:56;14.00;99.90
21318;DHT22;10818;50.830;6.524;2023-03-23T07:34:58;14.10;99.90
21318;DHT22;10818;50.830;6.524;2023-03-23T07:39:58;14.00;99.90
21318;DHT22;10818;50.830;6.524;2023-03-23T07:44:59;14.00;99.90
21318;DHT22;10818;50.830;6.524;2023-03-23T07:49:59;14.10;99.90
21318;DHT22;10818;50.830;6.524;2023-03-23T07:55:00;14.40;99.90
21318;DHT22;10818;50.830;6.524;2023-03-23T08:00:04;14.50;99.90
21318;DHT22;10818;50.830;6.524;2023-03-23T08:05:11;14.50;99.90
21318;DHT22;10818;50.830;6.524;2023-03-23T08:10:14;14.60;99.90
21318;DHT22;10818;50.830;6.524;2023-03-23T08:15:15;14.60;99.90
21318;DHT22;10818;50.830;6.524;2023-03-23T08:20:15;14.70;99.90
21318;DHT22;10818;50.830;6.524;2023-03-23T08:25:17;14.90;99.90
21318;DHT22;10818;50.830;6.524;2023-03-23T08:30:18;15.00;99.90
21318;DHT22;10818;50.830;6.524;2023-03-23T08:35:19;15.20;99.90
21318;DHT22;10818;50.830;6.524;2023-03-23T08:40:21;15.20;99.90
21318;DHT22;10818;50.830;6.524;2023-03-23T08:45:23;15.50;99.90
21318;DHT22;10818;50.830;6.524;2023-03-23T08:50:24;15.70;99.90
21318;DHT22;10818;50.830;6.524;2023-03-23T08:55:25;16.10;99.90
21318;DHT22;10818;50.830;6.524;2023-03-23T09:00:26;16.40;99.90
21318;DHT22;10818;50.830;6.524;2023-03-23T09:05:28;16.30;99.90
21318;DHT22;10818;50.830;6.524;2023-03-23T09:10:29;16.20;99.90
21318;DHT22;10818;50.830;6.524;2023-03-23T09:15:30;16.60;99.90
21318;DHT22;10818;50.830;6.524;2023-03-23T09:20:31;16.70;99.90
21318;DHT22;10818;50.830;6.524;2023-03-23T09:25:32;16.60;99.90
21318;DHT22;10818;50.830;6.524;2023-03-23T09:30:33;16.90;99.90
21318;DHT22;10818;50.830;6.524;2023-03-23T09:35:34;16.80;99.90
21318;DHT22;10818;50.830;6.524;2023-03-23T09:50:37;16.20;99.90
21318;DHT22;10818;50.830;6.524;2023-03-23T09:55:40;16.40;99.90
21318;DHT22;10818;50.830;6.524;2023-03-23T10:00:43;16.60;99.90
21318;DHT22;10818;50.830;6.524;2023-03-23T10:05:50;16.40;99.90
21318;DHT22;10818;50.830;6.524;2023-03-23T10:11:04;16.20;99.90
21318;DHT22;10818;50.830;6.524;2023-03-23T10:16:09;16.30;99.90
21318;DHT22;10818;50.830;6.524;2023-03-23T10:21:12;16.30;99.90
21318;DHT22;10818;50.830;6.524;2023-03-23T10:31:34;16.40;99.90
21318;DHT22;10818;50.830;6.524;2023-03-23T10:36:41;16.30;99.90
21318;DHT22;10818;50.830;6.524;2023-03-23T10:41:44;16.40;99.90
21318;DHT22;10818;50.830;6.524;2023-03-23T10:46:46;16.50;99.90
21318;DHT22;10818;50.830;6.524;2023-03-23T10:51:53;16.60;99.90
21318;DHT22;10818;50.830;6.524;2023-03-23T10:56:56;17.00;99.90
21318;DHT22;10818;50.830;6.524;2023-03-23T11:01:59;17.80;99.90
21318;DHT22;10818;50.830;6.524;2023-03-23T11:07:00;18.30;99.90
21318;DHT22;10818;50.830;6.524;2023-03-23T11:12:01;18.30;99.90
21318;DHT22;10818;50.830;6.524;2023-03-23T11:17:03;18.20;99.90
21318;DHT22;10818;50.830;6.524;2023-03-23T11:27:04;17.60;99.90
21318;DHT22;10818;50.830;6.524;2023-03-23T11:32:09;17.60;99.90
21318;DHT22;10818;50.830;6.524;2023-03-23T11:37:19;17.40;99.90
21318;DHT22;10818;50.830;6.524;2023-03-23T11:42:22;17.40;99.90
21318;DHT22;10818;50.830;6.524;2023-03-23T11:47:30;17.80;99.90
21318;DHT22;10818;50.830;6.524;2023-03-23T11:58:00;17.60;99.90
21318;DHT22;10818;50.830;6.524;2023-03-23T12:03:10;17.80;99.90
21318;DHT22;10818;50.830;6.524;2023-03-23T12:13:21;18.30;99.90
21318;DHT22;10818;50.830;6.524;2023-03-23T12:18:31;18.30;99.90
21318;DHT22;10818;50.830;6.524;2023-03-23T12:23:42;17.80;99.90
21318;DHT22;10818;50.830;6.524;2023-03-23T12:44:21;17.90;99.90
21318;DHT22;10818;50.830;6.524;2023-03-23T12:49:26;17.70;99.90
21318;DHT22;10818;50.830;6.524;2023-03-23T12:54:29;18.10;99.90
21318;DHT22;10818;50.830;6.524;2023-03-23T13:04:40;17.20;99.90
21318;DHT22;10818;50.830;6.524;2023-03-23T13:09:47;17.30;99.90
21318;DHT22;10818;50.830;6.524;2023-03-23T13:25:07;16.20;99.90
21318;DHT22;10818;50.830;6.524;2023-03-23T13:30:17;16.60;99.90
21318;DHT22;10818;50.830;6.524;2023-03-23T13:35:20;17.20;99.90
21318;DHT22;10818;50.830;6.524;2023-03-23T13:40:26;17.60;99.90
21318;DHT22;10818;50.830;6.524;2023-03-23T13:50:30;17.70;99.90
21318;DHT22;10818;50.830;6.524;2023-03-23T13:55:38;17.60;99.90
21318;DHT22;10818;50.830;6.524;2023-03-23T14:00:46;18.10;99.90
21318;DHT22;10818;50.830;6.524;2023-03-23T14:10:52;18.00;99.90
21318;DHT22;10818;50.830;6.524;2023-03-23T14:15:58;17.70;99.90
21318;DHT22;10818;50.830;6.524;2023-03-23T14:20:59;17.60;99.90
21318;DHT22;10818;50.830;6.524;2023-03-23T14:26:01;17.20;99.90
21318;DHT22;10818;50.830;6.524;2023-03-23T14:31:20;16.90;99.90
21318;DHT22;10818;50.830;6.524;2023-03-23T14:36:26;17.10;99.90
21318;DHT22;10818;50.830;6.524;2023-03-23T14:41:30;17.10;99.90
21318;DHT22;10818;50.830;6.524;2023-03-23T14:46:31;17.20;99.90
21318;DHT22;10818;50.830;6.524;2023-03-23T14:51:32;17.10;99.90
21318;DHT22;10818;50.830;6.524;2023-03-23T14:56:33;16.90;99.90
21318;DHT22;10818;50.830;6.524;2023-03-23T15:01:35;16.90;99.90
21318;DHT22;10818;50.830;6.524;2023-03-23T15:06:36;17.00;99.90
21318;DHT22;10818;50.830;6.524;2023-03-23T15:11:38;17.00;99.90
21318;DHT22;10818;50.830;6.524;2023-03-23T15:16:40;17.10;99.90
21318;DHT22;10818;50.830;6.524;2023-03-23T15:26:51;17.30;99.90
21318;DHT22;10818;50.830;6.524;2023-03-23T15:31:55;17.20;99.90
21318;DHT22;10818;50.830;6.524;2023-03-23T15:36:57;17.10;99.90
21318;DHT22;10818;50.830;6.524;2023-03-23T15:41:59;17.10;99.90
21318;DHT22;10818;50.830;6.524;2023-03-23T15:47:10;16.90;99.90
21318;DHT22;10818;50.830;6.524;2023-03-23T15:52:13;16.90;99.90
21318;DHT22;10818;50.830;6.524;2023-03-23T15:57:13;16.70;99.90
21318;DHT22;10818;50.830;6.524;2023-03-23T16:02:21;16.60;99.90
21318;DHT22;10818;50.830;6.524;2023-03-23T16:07:23;16.70;99.90
21318;DHT22;10818;50.830;6.524;2023-03-23T16:12:23;16.50;99.90
21318;DHT22;10818;50.830;6.524;2023-03-23T16:17:24;16.20;99.90
21318;DHT22;10818;50.830;6.524;2023-03-23T16:22:25;16.00;99.90
21318;DHT22;10818;50.830;6.524;2023-03-23T16:27:25;16.10;99.90
21318;DHT22;10818;50.830;6.524;2023-03-23T16:32:26;15.90;99.90
21318;DHT22;10818;50.830;6.524;2023-03-23T16:37:26;15.90;99.90
21318;DHT22;10818;50.830;6.524;2023-03-23T16:42:32;15.60;99.90
21318;DHT22;10818;50.830;6.524;2023-03-23T16:47:32;15.60;99.90
21318;DHT22;10818;50.830;6.524;2023-03-23T16:52:33;15.40;99.90
21318;DHT22;10818;50.830;6.524;2023-03-23T16:57:34;15.40;99.90
21318;DHT22;10818;50.830;6.524;2023-03-23T17:02:39;15.40;99.90
21318;DHT22;10818;50.830;6.524;2023-03-23T17:07:40;15.40;99.90
21318;DHT22;10818;50.830;6.524;2023-03-23T17:12:41;15.20;99.90
21318;DHT22;10818;50.830;6.524;2023-03-23T17:17:44;15.10;99.90
21318;DHT22;10818;50.830;6.524;2023-03-23T17:22:44;15.10;99.90
21318;DHT22;10818;50.830;6.524;2023-03-23T17:27:45;15.00;99.90
21318;DHT22;10818;50.830;6.524;2023-03-23T17:32:45;15.00;99.90
21318;DHT22;10818;50.830;6.524;2023-03-23T17:37:47;14.90;99.90
21318;DHT22;10818;50.830;6.524;2023-03-23T17:42:47;14.90;99.90
21318;DHT22;10818;50.830;6.524;2023-03-23T17:47:48;14.80;99.90
21318;DHT22;10818;50.830;6.524;2023-03-23T17:52:48;14.70;99.90
21318;DHT22;10818;50.830;6.524;2023-03-23T17:57:49;14.70;99.90
21318;DHT22;10818;50.830;6.524;2023-03-23T18:02:49;14.70;99.90
21318;DHT22;10818;50.830;6.524;2023-03-23T18:07:50;14.60;99.90
21318;DHT22;10818;50.830;6.524;2023-03-23T18:12:50;14.50;99.90
21318;DHT22;10818;50.830;6.524;2023-03-23T18:17:50;14.50;99.90
21318;DHT22;10818;50.830;6.524;2023-03-23T18:22:51;14.50;99.90
21318;DHT22;10818;50.830;6.524;2023-03-23T18:27:52;14.40;99.90
21318;DHT22;10818;50.830;6.524;2023-03-23T18:32:52;14.30;99.90
21318;DHT22;10818;50.830;6.524;2023-03-23T18:37:53;14.30;99.90
21318;DHT22;10818;50.830;6.524;2023-03-23T18:42:53;14.30;99.90
21318;DHT22;10818;50.830;6.524;2023-03-23T18:47:53;14.20;99.90
21318;DHT22;10818;50.830;6.524;2023-03-23T18:52:54;14.20;99.90
21318;DHT22;10818;50.830;6.524;2023-03-23T18:57:55;14.10;99.90
21318;DHT22;10818;50.830;6.524;2023-03-23T19:02:57;13.90;99.90
21318;DHT22;10818;50.830;6.524;2023-03-23T19:07:57;13.90;99.90
21318;DHT22;10818;50.830;6.524;2023-03-23T19:12:58;13.90;99.90
21318;DHT22;10818;50.830;6.524;2023-03-23T19:17:58;13.90;99.90
21318;DHT22;10818;50.830;6.524;2023-03-23T19:22:59;13.90;99.90
21318;DHT22;10818;50.830;6.524;2023-03-23T19:28:00;14.00;99.90
21318;DHT22;10818;50.830;6.524;2023-03-23T19:33:01;14.10;99.90
21318;DHT22;10818;50.830;6.524;2023-03-23T19:38:02;14.10;99.90
21318;DHT22;10818;50.830;6.524;2023-03-23T19:43:03;14.20;99.90
21318;DHT22;10818;50.830;6.524;2023-03-23T19:48:04;14.10;99.90
21318;DHT22;10818;50.830;6.524;2023-03-23T19:53:04;14.00;99.90
21318;DHT22;10818;50.830;6.524;2023-03-23T19:58:05;13.80;99.90
21318;DHT22;10818;50.830;6.524;2023-03-23T20:03:05;13.80;99.90
21318;DHT22;10818;50.830;6.524;2023-03-23T20:08:06;13.80;99.90
21318;DHT22;10818;50.830;6.524;2023-03-23T20:13:09;13.80;99.90
21318;DHT22;10818;50.830;6.524;2023-03-23T20:18:10;13.60;99.90
21318;DHT22;10818;50.830;6.524;2023-03-23T20:23:13;13.60;99.90
21318;DHT22;10818;50.830;6.524;2023-03-23T20:28:14;13.60;99.90
21318;DHT22;10818;50.830;6.524;2023-03-23T20:33:14;13.60;99.90
21318;DHT22;10818;50.830;6.524;2023-03-23T20:38:15;13.70;99.90
21318;DHT22;10818;50.830;6.524;2023-03-23T20:43:17;13.80;99.90
21318;DHT22;10818;50.830;6.524;2023-03-23T20:48:18;13.80;99.90
21318;DHT22;10818;50.830;6.524;2023-03-23T20:53:19;13.90;99.90
21318;DHT22;10818;50.830;6.524;2023-03-23T20:58:19;13.90;99.90
21318;DHT22;10818;50.830;6.524;2023-03-23T21:03:20;14.10;99.90
21318;DHT22;10818;50.830;6.524;2023-03-23T21:08:20;14.10;99.90
21318;DHT22;10818;50.830;6.524;2023-03-23T21:13:22;14.10;99.90
21318;DHT22;10818;50.830;6.524;2023-03-23T21:18:22;14.20;99.90
21318;DHT22;10818;50.830;6.524;2023-03-23T21:23:23;14.20;99.90
21318;DHT22;10818;50.830;6.524;2023-03-23T21:28:25;14.20;99.90
21318;DHT22;10818;50.830;6.524;2023-03-23T21:33:27;14.20;99.90
21318;DHT22;10818;50.830;6.524;2023-03-23T21:38:28;14.10;99.90
21318;DHT22;10818;50.830;6.524;2023-03-23T21:43:28;14.20;99.90
21318;DHT22;10818;50.830;6.524;2023-03-23T21:48:28;14.10;99.90
21318;DHT22;10818;50.830;6.524;2023-03-23T21:53:29;14.00;99.90
21318;DHT22;10818;50.830;6.524;2023-03-23T21:58:30;14.00;99.90
21318;DHT22;10818;50.830;6.524;2023-03-23T22:03:30;13.90;99.90
21318;DHT22;10818;50.830;6.524;2023-03-23T22:08:32;13.80;99.90
21318;DHT22;10818;50.830;6.524;2023-03-23T22:13:32;13.70;99.90
21318;DHT22;10818;50.830;6.524;2023-03-23T22:18:33;13.50;99.90
21318;DHT22;10818;50.830;6.524;2023-03-23T22:23:34;13.50;99.90
21318;DHT22;10818;50.830;6.524;2023-03-23T22:28:35;13.30;99.90
21318;DHT22;10818;50.830;6.524;2023-03-23T22:33:36;13.20;99.90
21318;DHT22;10818;50.830;6.524;2023-03-23T22:38:38;13.10;99.90
21318;DHT22;10818;50.830;6.524;2023-03-23T22:43:39;13.10;99.90
21318;DHT22;10818;50.830;6.524;2023-03-23T22:48:39;13.00;99.90
21318;DHT22;10818;50.830;6.524;2023-03-23T22:53:40;13.20;99.90
21318;DHT22;10818;50.830;6.524;2023-03-23T22:58:40;13.10;99.90
21318;DHT22;10818;50.830;6.524;2023-03-23T23:03:41;13.10;99.90
21318;DHT22;10818;50.830;6.524;2023-03-23T23:08:42;13.10;99.90
21318;DHT22;10818;50.830;6.524;2023-03-23T23:13:43;13.10;99.90
21318;DHT22;10818;50.830;6.524;2023-03-23T23:18:44;13.00;99.90
21318;DHT22;10818;50.830;6.524;2023-03-23T23:23:46;13.10;99.90
21318;DHT22;10818;50.830;6.524;2023-03-23T23:28:47;13.10;99.90
21318;DHT22;10818;50.830;6.524;2023-03-23T23:33:48;13.10;99.90
21318;DHT22;10818;50.830;6.524;2023-03-23T23:38:49;13.10;99.90
21318;DHT22;10818;50.830;6.524;2023-03-23T23:43:49;13.10;99.90
21318;DHT22;10818;50.830;6.524;2023-03-23T23:48:50;13.10;99.90
21318;DHT22;10818;50.830;6.524;2023-03-23T23:53:51;13.20;99.90
21318;DHT22;10818;50.830;6.524;2023-03-23T23:58:52;13.20;99.90
